sensor_id;sensor_type;location;lat;lon;timestamp;pressure;altitude;pressure_sealevel;temperature;humidity
48555;BME280;34336;48.270;16.716;2023-02-03T00:00:27;78143.78;;;18.16;87.42
48555;BME280;34336;48.270;16.716;2023-02-03T00:02:55;78151.50;;;18.16;88.21
48555;BME280;34336;48.270;16.716;2023-02-03T00:05:22;78143.78;;;18.16;88.29
48555;BME280;34336;48.270;16.716;2023-02-03T00:07:49;78151.50;;;18.16;88.82
48555;BME280;34336;48.270;16.716;2023-02-03T00:10:17;78153.44;;;18.16;88.86
48555;BME280;34336;48.270;16.716;2023-02-03T00:12:50;78151.50;;;18.16;89.10
48555;BME280;34336;48.270;16.716;2023-02-03T00:15:20;78151.50;;;18.16;89.31
48555;BME280;34336;48.270;16.716;2023-02-03T00:17:48;78159.22;;;18.16;89.84
48555;BME280;34336;48.270;16.716;2023-02-03T00:20:15;78163.06;;;18.16;90.23
48555;BME280;34336;48.270;16.716;2023-02-03T00:22:42;78163.06;;;18.16;90.07
48555;BME280;34336;48.270;16.716;2023-02-03T00:25:09;78178.50;;;18.16;90.53
48555;BME280;34336;48.270;16.716;2023-02-03T00:27:35;78186.22;;;18.16;91.22
48555;BME280;34336;48.270;16.716;2023-02-03T00:30:02;78184.28;;;18.16;91.49
48555;BME280;34336;48.270;16.716;2023-02-03T00:32:29;78184.28;;;18.16;91.74
48555;BME280;34336;48.270;16.716;2023-02-03T00:34:56;78184.28;;;18.16;91.74
48555;BME280;34336;48.270;16.716;2023-02-03T00:37:23;78182.34;;;18.16;91.33
48555;BME280;34336;48.270;16.716;2023-02-03T00:39:49;78192.00;;;18.16;91.75
48555;BME280;34336;48.270;16.716;2023-02-03T00:42:16;78186.22;;;18.16;91.88
48555;BME280;34336;48.270;16.716;2023-02-03T00:44:42;78172.72;;;18.16;91.21
48555;BME280;34336;48.270;16.716;2023-02-03T00:47:09;78166.94;;;18.16;90.96
48555;BME280;34336;48.270;16.716;2023-02-03T00:49:35;78178.50;;;18.16;91.06
48555;BME280;34336;48.270;16.716;2023-02-03T00:52:02;78174.63;;;18.16;90.33
48555;BME280;34336;48.270;16.716;2023-02-03T00:54:29;78174.63;;;18.16;90.42
48555;BME280;34336;48.270;16.716;2023-02-03T00:56:59;78170.78;;;18.16;89.69
48555;BME280;34336;48.270;16.716;2023-02-03T00:59:25;78166.94;;;18.16;89.33
48555;BME280;34336;48.270;16.716;2023-02-03T01:01:52;78157.28;;;18.16;89.15
48555;BME280;34336;48.270;16.716;2023-02-03T01:04:19;78163.06;;;18.16;89.38
48555;BME280;34336;48.270;16.716;2023-02-03T01:06:45;78166.94;;;18.16;90.01
48555;BME280;34336;48.270;16.716;2023-02-03T01:09:12;78157.28;;;18.16;90.61
48555;BME280;34336;48.270;16.716;2023-02-03T01:11:38;78151.50;;;18.16;90.84
48555;BME280;34336;48.270;16.716;2023-02-03T01:14:06;78149.56;;;18.16;91.06
48555;BME280;34336;48.270;16.716;2023-02-03T01:16:34;78149.56;;;18.16;91.29
48555;BME280;34336;48.270;16.716;2023-02-03T01:19:03;78151.50;;;18.16;91.77
48555;BME280;34336;48.270;16.716;2023-02-03T01:21:31;78139.94;;;18.16;92.14
48555;BME280;34336;48.270;16.716;2023-02-03T01:23:58;78126.44;;;18.16;91.71
48555;BME280;34336;48.270;16.716;2023-02-03T01:26:25;78128.38;;;18.16;92.24
48555;BME280;34336;48.270;16.716;2023-02-03T01:28:59;78136.09;;;18.16;92.48
48555;BME280;34336;48.270;16.716;2023-02-03T01:31:28;78136.09;;;18.16;92.27
48555;BME280;34336;48.270;16.716;2023-02-03T01:33:55;78128.38;;;18.16;92.12
48555;BME280;34336;48.270;16.716;2023-02-03T01:36:24;78124.50;;;18.16;92.14
48555;BME280;34336;48.270;16.716;2023-02-03T01:38:51;78124.50;;;18.16;92.50
48555;BME280;34336;48.270;16.716;2023-02-03T01:41:22;78126.44;;;18.16;92.35
48555;BME280;34336;48.270;16.716;2023-02-03T01:43:52;78128.38;;;18.16;92.69
48555;BME280;34336;48.270;16.716;2023-02-03T01:46:43;78114.88;;;18.16;92.72
48555;BME280;34336;48.270;16.716;2023-02-03T01:49:38;78112.94;;;18.16;92.27
48555;BME280;34336;48.270;16.716;2023-02-03T01:52:04;78116.81;;;18.16;92.27
48555;BME280;34336;48.270;16.716;2023-02-03T01:54:36;78116.81;;;18.16;92.16
48555;BME280;34336;48.270;16.716;2023-02-03T01:57:10;78116.81;;;18.16;92.67
48555;BME280;34336;48.270;16.716;2023-02-03T01:59:38;78120.66;;;18.16;92.88
48555;BME280;34336;48.270;16.716;2023-02-03T02:02:06;78122.59;;;18.16;93.18
48555;BME280;34336;48.270;16.716;2023-02-03T02:07:25;78114.88;;;18.16;93.03
48555;BME280;34336;48.270;16.716;2023-02-03T02:09:52;78105.22;;;18.16;93.10
48555;BME280;34336;48.270;16.716;2023-02-03T02:12:20;78099.44;;;18.16;93.13
48555;BME280;34336;48.270;16.716;2023-02-03T02:14:46;78093.66;;;18.16;93.00
48555;BME280;34336;48.270;16.716;2023-02-03T02:31:04;78093.66;;;18.16;93.35
48555;BME280;34336;48.270;16.716;2023-02-03T02:33:42;78089.81;;;18.16;93.31
48555;BME280;34336;48.270;16.716;2023-02-03T02:36:29;78074.38;;;18.16;92.96
48555;BME280;34336;48.270;16.716;2023-02-03T02:41:42;78078.25;;;18.16;93.70
48555;BME280;34336;48.270;16.716;2023-02-03T02:46:46;78066.69;;;18.16;93.30
48555;BME280;34336;48.270;16.716;2023-02-03T02:49:25;78074.38;;;18.16;93.45
48555;BME280;34336;48.270;16.716;2023-02-03T02:51:56;78072.47;;;18.16;93.59
48555;BME280;34336;48.270;16.716;2023-02-03T02:54:26;78076.31;;;18.16;94.22
48555;BME280;34336;48.270;16.716;2023-02-03T02:56:59;78082.09;;;18.16;94.64
48555;BME280;34336;48.270;16.716;2023-02-03T02:59:28;78066.69;;;18.16;94.93
48555;BME280;34336;48.270;16.716;2023-02-03T03:01:55;78064.75;;;18.16;94.88
48555;BME280;34336;48.270;16.716;2023-02-03T03:04:27;78055.09;;;18.16;95.14
48555;BME280;34336;48.270;16.716;2023-02-03T03:07:03;78051.25;;;18.16;95.22
48555;BME280;34336;48.270;16.716;2023-02-03T03:09:41;78047.41;;;18.16;95.44
48555;BME280;34336;48.270;16.716;2023-02-03T03:12:14;78035.84;;;18.16;95.06
48555;BME280;34336;48.270;16.716;2023-02-03T03:14:47;78028.13;;;18.16;95.07
48555;BME280;34336;48.270;16.716;2023-02-03T03:17:23;78026.19;;;18.16;95.32
48555;BME280;34336;48.270;16.716;2023-02-03T03:19:54;78026.19;;;18.16;95.21
48555;BME280;34336;48.270;16.716;2023-02-03T03:22:26;78028.13;;;18.16;94.88
48555;BME280;34336;48.270;16.716;2023-02-03T03:24:59;78028.13;;;18.16;95.04
48555;BME280;34336;48.270;16.716;2023-02-03T03:27:33;78026.19;;;18.16;95.38
48555;BME280;34336;48.270;16.716;2023-02-03T03:30:07;78020.41;;;18.16;95.02
48555;BME280;34336;48.270;16.716;2023-02-03T03:32:36;78022.34;;;18.16;95.64
48555;BME280;34336;48.270;16.716;2023-02-03T03:35:04;78016.56;;;18.16;95.68
48555;BME280;34336;48.270;16.716;2023-02-03T03:37:40;78012.69;;;18.16;95.54
48555;BME280;34336;48.270;16.716;2023-02-03T03:40:47;78020.41;;;18.16;95.78
48555;BME280;34336;48.270;16.716;2023-02-03T03:43:21;78020.41;;;18.16;96.10
48555;BME280;34336;48.270;16.716;2023-02-03T03:45:57;78018.47;;;18.16;96.50
48555;BME280;34336;48.270;16.716;2023-02-03T03:48:42;78022.34;;;18.16;96.73
48555;BME280;34336;48.270;16.716;2023-02-03T03:51:18;78022.34;;;18.16;96.81
48555;BME280;34336;48.270;16.716;2023-02-03T03:53:45;78020.41;;;18.16;97.16
48555;BME280;34336;48.270;16.716;2023-02-03T03:56:18;78016.56;;;18.16;97.50
48555;BME280;34336;48.270;16.716;2023-02-03T03:58:47;78024.25;;;18.16;97.90
48555;BME280;34336;48.270;16.716;2023-02-03T04:01:15;78033.91;;;18.16;98.52
48555;BME280;34336;48.270;16.716;2023-02-03T04:03:47;78035.84;;;18.16;99.16
48555;BME280;34336;48.270;16.716;2023-02-03T04:06:15;78043.53;;;18.16;99.49
48555;BME280;34336;48.270;16.716;2023-02-03T04:08:42;78037.75;;;18.16;100.00
48555;BME280;34336;48.270;16.716;2023-02-03T04:11:09;78024.25;;;18.16;100.00
48555;BME280;34336;48.270;16.716;2023-02-03T04:13:35;78020.41;;;18.16;100.00
48555;BME280;34336;48.270;16.716;2023-02-03T04:16:02;78012.69;;;18.16;100.00
48555;BME280;34336;48.270;16.716;2023-02-03T04:18:28;78020.41;;;18.16;100.00
48555;BME280;34336;48.270;16.716;2023-02-03T04:20:55;78020.41;;;18.16;100.00
48555;BME280;34336;48.270;16.716;2023-02-03T04:23:22;78016.56;;;18.16;100.00
48555;BME280;34336;48.270;16.716;2023-02-03T04:25:49;78016.56;;;18.16;100.00
48555;BME280;34336;48.270;16.716;2023-02-03T04:28:15;78012.69;;;18.16;100.00
48555;BME280;34336;48.270;16.716;2023-02-03T04:30:42;78020.41;;;18.16;100.00
48555;BME280;34336;48.270;16.716;2023-02-03T04:33:09;78016.56;;;18.16;100.00
48555;BME280;34336;48.270;16.716;2023-02-03T04:35:35;78020.41;;;18.16;100.00
48555;BME280;34336;48.270;16.716;2023-02-03T04:38:02;78014.63;;;18.16;100.00
48555;BME280;34336;48.270;16.716;2023-02-03T04:40:29;78010.78;;;18.16;100.00
48555;BME280;34336;48.270;16.716;2023-02-03T04:42:56;78005.00;;;18.16;100.00
48555;BME280;34336;48.270;16.716;2023-02-03T04:45:23;78016.56;;;18.16;100.00
48555;BME280;34336;48.270;16.716;2023-02-03T04:47:51;78008.84;;;18.16;100.00
48555;BME280;34336;48.270;16.716;2023-02-03T04:50:20;78008.84;;;18.16;100.00
48555;BME280;34336;48.270;16.716;2023-02-03T04:52:46;78008.84;;;18.16;100.00
48555;BME280;34336;48.270;16.716;2023-02-03T04:55:13;78001.13;;;18.16;100.00
48555;BME280;34336;48.270;16.716;2023-02-03T04:57:40;77993.41;;;18.16;100.00
48555;BME280;34336;48.270;16.716;2023-02-03T05:00:07;77985.72;;;18.16;100.00
48555;BME280;34336;48.270;16.716;2023-02-03T05:02:34;77985.72;;;18.16;100.00
48555;BME280;34336;48.270;16.716;2023-02-03T05:05:01;77983.78;;;18.16;100.00
48555;BME280;34336;48.270;16.716;2023-02-03T05:07:27;77983.78;;;18.16;100.00
48555;BME280;34336;48.270;16.716;2023-02-03T05:09:54;77978.00;;;18.16;100.00
48555;BME280;34336;48.270;16.716;2023-02-03T05:12:20;77989.56;;;18.16;100.00
48555;BME280;34336;48.270;16.716;2023-02-03T05:14:47;77985.72;;;18.16;100.00
48555;BME280;34336;48.270;16.716;2023-02-03T05:17:14;77983.78;;;18.16;100.00
48555;BME280;34336;48.270;16.716;2023-02-03T05:19:40;77974.13;;;18.16;100.00
48555;BME280;34336;48.270;16.716;2023-02-03T05:22:07;77976.06;;;18.16;100.00
48555;BME280;34336;48.270;16.716;2023-02-03T05:24:33;77970.28;;;18.16;100.00
48555;BME280;34336;48.270;16.716;2023-02-03T05:27:00;77964.50;;;18.16;100.00
48555;BME280;34336;48.270;16.716;2023-02-03T05:29:27;77962.56;;;18.16;100.00
48555;BME280;34336;48.270;16.716;2023-02-03T05:31:53;77962.56;;;18.16;100.00
48555;BME280;34336;48.270;16.716;2023-02-03T05:34:20;77960.66;;;18.16;100.00
48555;BME280;34336;48.270;16.716;2023-02-03T05:36:47;77960.66;;;18.16;100.00
48555;BME280;34336;48.270;16.716;2023-02-03T05:39:13;77956.78;;;18.16;100.00
48555;BME280;34336;48.270;16.716;2023-02-03T05:41:40;77958.72;;;18.16;100.00
48555;BME280;34336;48.270;16.716;2023-02-03T05:44:24;77958.72;;;18.16;100.00
48555;BME280;34336;48.270;16.716;2023-02-03T05:46:53;77956.78;;;18.16;100.00
48555;BME280;34336;48.270;16.716;2023-02-03T05:49:20;77947.16;;;18.16;100.00
48555;BME280;34336;48.270;16.716;2023-02-03T05:51:50;77951.00;;;18.16;100.00
48555;BME280;34336;48.270;16.716;2023-02-03T05:54:17;77951.00;;;18.16;100.00
48555;BME280;34336;48.270;16.716;2023-02-03T05:56:43;77951.00;;;18.16;100.00
48555;BME280;34336;48.270;16.716;2023-02-03T05:59:10;77949.09;;;18.16;100.00
48555;BME280;34336;48.270;16.716;2023-02-03T06:01:37;77947.16;;;18.16;100.00
48555;BME280;34336;48.270;16.716;2023-02-03T06:04:04;77947.16;;;18.16;100.00
48555;BME280;34336;48.270;16.716;2023-02-03T06:06:31;77939.44;;;18.16;100.00
48555;BME280;34336;48.270;16.716;2023-02-03T06:09:07;77941.38;;;18.16;100.00
48555;BME280;34336;48.270;16.716;2023-02-03T06:11:34;77933.66;;;18.16;100.00
48555;BME280;34336;48.270;16.716;2023-02-03T06:14:02;77931.72;;;18.16;100.00
48555;BME280;34336;48.270;16.716;2023-02-03T06:16:29;77931.72;;;18.16;100.00
48555;BME280;34336;48.270;16.716;2023-02-03T06:18:56;77927.88;;;18.16;100.00
48555;BME280;34336;48.270;16.716;2023-02-03T06:21:27;77916.31;;;18.16;100.00
48555;BME280;34336;48.270;16.716;2023-02-03T06:23:54;77914.38;;;18.16;100.00
48555;BME280;34336;48.270;16.716;2023-02-03T06:26:22;77898.97;;;18.16;100.00
48555;BME280;34336;48.270;16.716;2023-02-03T06:28:50;77897.03;;;18.16;100.00
48555;BME280;34336;48.270;16.716;2023-02-03T06:31:17;77889.31;;;18.16;100.00
48555;BME280;34336;48.270;16.716;2023-02-03T06:33:43;77893.19;;;18.16;100.00
48555;BME280;34336;48.270;16.716;2023-02-03T06:36:10;77893.19;;;18.16;100.00
48555;BME280;34336;48.270;16.716;2023-02-03T06:38:37;77885.47;;;18.16;100.00
48555;BME280;34336;48.270;16.716;2023-02-03T06:41:03;77889.31;;;18.16;100.00
48555;BME280;34336;48.270;16.716;2023-02-03T06:43:30;77887.38;;;18.16;100.00
48555;BME280;34336;48.270;16.716;2023-02-03T06:45:57;77877.75;;;18.16;100.00
48555;BME280;34336;48.270;16.716;2023-02-03T06:48:23;77873.91;;;18.16;100.00
48555;BME280;34336;48.270;16.716;2023-02-03T06:50:50;77873.91;;;18.16;100.00
48555;BME280;34336;48.270;16.716;2023-02-03T06:53:17;77866.19;;;18.16;100.00
48555;BME280;34336;48.270;16.716;2023-02-03T06:55:43;77854.63;;;18.16;100.00
48555;BME280;34336;48.270;16.716;2023-02-03T06:58:10;77854.63;;;18.16;100.00
48555;BME280;34336;48.270;16.716;2023-02-03T07:00:37;77850.75;;;18.16;100.00
48555;BME280;34336;48.270;16.716;2023-02-03T07:03:03;77846.91;;;18.16;100.00
48555;BME280;34336;48.270;16.716;2023-02-03T07:05:30;77837.28;;;18.16;100.00
48555;BME280;34336;48.270;16.716;2023-02-03T07:07:57;77837.28;;;18.16;100.00
48555;BME280;34336;48.270;16.716;2023-02-03T07:10:24;77835.34;;;18.16;100.00
48555;BME280;34336;48.270;16.716;2023-02-03T07:12:51;77827.63;;;18.16;100.00
48555;BME280;34336;48.270;16.716;2023-02-03T07:15:18;77823.78;;;18.16;100.00
48555;BME280;34336;48.270;16.716;2023-02-03T07:17:46;77831.50;;;18.16;100.00
48555;BME280;34336;48.270;16.716;2023-02-03T07:20:21;77839.19;;;18.16;100.00
48555;BME280;34336;48.270;16.716;2023-02-03T07:22:55;77819.91;;;18.16;100.00
48555;BME280;34336;48.270;16.716;2023-02-03T07:25:23;77823.78;;;18.16;100.00
48555;BME280;34336;48.270;16.716;2023-02-03T07:27:50;77816.06;;;18.16;100.00
48555;BME280;34336;48.270;16.716;2023-02-03T07:30:17;77816.06;;;18.16;100.00
48555;BME280;34336;48.270;16.716;2023-02-03T07:32:51;77810.28;;;18.16;100.00
48555;BME280;34336;48.270;16.716;2023-02-03T07:35:18;77812.22;;;18.16;100.00
48555;BME280;34336;48.270;16.716;2023-02-03T07:37:45;77818.00;;;18.16;100.00
48555;BME280;34336;48.270;16.716;2023-02-03T07:40:13;77810.28;;;18.16;100.00
48555;BME280;34336;48.270;16.716;2023-02-03T07:42:43;77798.72;;;18.16;100.00
48555;BME280;34336;48.270;16.716;2023-02-03T07:45:12;77791.00;;;18.16;100.00
48555;BME280;34336;48.270;16.716;2023-02-03T07:47:39;77789.06;;;18.16;100.00
48555;BME280;34336;48.270;16.716;2023-02-03T07:50:07;77775.59;;;18.16;100.00
48555;BME280;34336;48.270;16.716;2023-02-03T07:52:34;77777.50;;;18.16;100.00
48555;BME280;34336;48.270;16.716;2023-02-03T07:55:00;77767.88;;;18.16;100.00
48555;BME280;34336;48.270;16.716;2023-02-03T07:57:27;77752.44;;;18.16;100.00
48555;BME280;34336;48.270;16.716;2023-02-03T07:59:54;77750.53;;;18.16;100.00
48555;BME280;34336;48.270;16.716;2023-02-03T08:02:21;77733.19;;;18.16;100.00
48555;BME280;34336;48.270;16.716;2023-02-03T08:04:47;77719.69;;;18.16;100.00
48555;BME280;34336;48.270;16.716;2023-02-03T08:07:14;77708.13;;;18.16;100.00
48555;BME280;34336;48.270;16.716;2023-02-03T08:09:41;77700.41;;;18.16;100.00
48555;BME280;34336;48.270;16.716;2023-02-03T08:12:07;77684.97;;;18.16;100.00
48555;BME280;34336;48.270;16.716;2023-02-03T08:14:34;77671.50;;;18.16;100.00
48555;BME280;34336;48.270;16.716;2023-02-03T08:17:01;77648.34;;;18.16;100.00
48555;BME280;34336;48.270;16.716;2023-02-03T08:19:27;77629.09;;;18.16;100.00
48555;BME280;34336;48.270;16.716;2023-02-03T08:21:54;77607.88;;;18.16;100.00
48555;BME280;34336;48.270;16.716;2023-02-03T08:24:22;77596.31;;;18.16;100.00
48555;BME280;34336;48.270;16.716;2023-02-03T08:26:49;77575.09;;;18.16;100.00
48555;BME280;34336;48.270;16.716;2023-02-03T08:29:15;77565.47;;;18.16;100.00
48555;BME280;34336;48.270;16.716;2023-02-03T08:31:42;77542.34;;;18.16;100.00
48555;BME280;34336;48.270;16.716;2023-02-03T08:34:09;77521.13;;;18.16;100.00
48555;BME280;34336;48.270;16.716;2023-02-03T08:36:35;77509.56;;;18.16;100.00
48555;BME280;34336;48.270;16.716;2023-02-03T08:39:05;77490.28;;;18.16;100.00
48555;BME280;34336;48.270;16.716;2023-02-03T08:41:32;77472.94;;;18.16;100.00
48555;BME280;34336;48.270;16.716;2023-02-03T08:43:59;77461.38;;;18.16;100.00
48555;BME280;34336;48.270;16.716;2023-02-03T08:46:26;77440.19;;;18.16;100.00
48555;BME280;34336;48.270;16.716;2023-02-03T08:48:53;77434.41;;;18.16;100.00
48555;BME280;34336;48.270;16.716;2023-02-03T08:51:22;77422.84;;;18.16;100.00
48555;BME280;34336;48.270;16.716;2023-02-03T08:53:50;77411.25;;;18.16;100.00
48555;BME280;34336;48.270;16.716;2023-02-03T08:56:17;77395.84;;;18.16;100.00
48555;BME280;34336;48.270;16.716;2023-02-03T08:58:44;77372.72;;;18.16;100.00
48555;BME280;34336;48.270;16.716;2023-02-03T09:01:14;77363.09;;;18.16;100.00
48555;BME280;34336;48.270;16.716;2023-02-03T09:03:41;77353.44;;;18.16;99.41
48555;BME280;34336;48.270;16.716;2023-02-03T09:06:08;77345.72;;;18.16;99.39
48555;BME280;34336;48.270;16.716;2023-02-03T09:08:37;77339.94;;;18.16;98.74
48555;BME280;34336;48.270;16.716;2023-02-03T09:11:09;77338.03;;;18.16;97.34
48555;BME280;34336;48.270;16.716;2023-02-03T09:13:36;77338.03;;;18.16;96.38
48555;BME280;34336;48.270;16.716;2023-02-03T09:16:05;77318.75;;;18.16;96.01
48555;BME280;34336;48.270;16.716;2023-02-03T09:18:32;77322.59;;;18.16;94.99
48555;BME280;34336;48.270;16.716;2023-02-03T09:21:00;77299.47;;;18.16;91.91
48555;BME280;34336;48.270;16.716;2023-02-03T09:23:28;77305.25;;;18.16;91.76
48555;BME280;34336;48.270;16.716;2023-02-03T09:25:55;77287.91;;;18.16;89.19
48555;BME280;34336;48.270;16.716;2023-02-03T09:28:22;77280.19;;;18.16;88.47
48555;BME280;34336;48.270;16.716;2023-02-03T09:30:48;77264.78;;;18.16;87.64
48555;BME280;34336;48.270;16.716;2023-02-03T09:33:15;77251.28;;;18.16;87.70
48555;BME280;34336;48.270;16.716;2023-02-03T09:35:41;77255.16;;;18.16;87.34
48555;BME280;34336;48.270;16.716;2023-02-03T09:38:16;77241.66;;;18.16;87.51
48555;BME280;34336;48.270;16.716;2023-02-03T09:40:43;77249.38;;;18.16;86.61
48555;BME280;34336;48.270;16.716;2023-02-03T09:45:46;77206.97;;;18.16;84.66
48555;BME280;34336;48.270;16.716;2023-02-03T09:48:18;77206.97;;;18.16;85.01
48555;BME280;34336;48.270;16.716;2023-02-03T09:50:48;77187.69;;;18.16;83.90
48555;BME280;34336;48.270;16.716;2023-02-03T09:53:26;77166.47;;;18.16;83.43
48555;BME280;34336;48.270;16.716;2023-02-03T09:55:54;77149.13;;;18.16;81.21
48555;BME280;34336;48.270;16.716;2023-02-03T09:58:22;77139.50;;;18.16;80.94
48555;BME280;34336;48.270;16.716;2023-02-03T10:00:53;77133.72;;;18.16;80.32
48555;BME280;34336;48.270;16.716;2023-02-03T10:03:51;77131.78;;;18.16;79.12
48555;BME280;34336;48.270;16.716;2023-02-03T10:06:42;77120.22;;;18.16;78.22
48555;BME280;34336;48.270;16.716;2023-02-03T10:09:45;77112.53;;;18.16;78.00
48555;BME280;34336;48.270;16.716;2023-02-03T10:12:41;77091.31;;;18.16;76.61
48555;BME280;34336;48.270;16.716;2023-02-03T10:18:02;77079.75;;;18.16;76.22
48555;BME280;34336;48.270;16.716;2023-02-03T10:23:06;77060.47;;;18.16;75.36
48555;BME280;34336;48.270;16.716;2023-02-03T10:25:39;77056.63;;;18.16;75.57
48555;BME280;34336;48.270;16.716;2023-02-03T10:28:16;77047.00;;;18.16;74.41
48555;BME280;34336;48.270;16.716;2023-02-03T10:30:55;77033.50;;;18.16;74.33
48555;BME280;34336;48.270;16.716;2023-02-03T10:33:28;76998.81;;;18.16;74.19
48555;BME280;34336;48.270;16.716;2023-02-03T10:36:16;76977.59;;;18.16;73.44
48555;BME280;34336;48.270;16.716;2023-02-03T10:41:15;76966.03;;;18.16;71.48
48555;BME280;34336;48.270;16.716;2023-02-03T10:43:45;76975.69;;;18.16;71.83
48555;BME280;34336;48.270;16.716;2023-02-03T10:46:29;76979.53;;;18.16;72.25
48555;BME280;34336;48.270;16.716;2023-02-03T10:48:57;76981.47;;;18.16;72.96
48555;BME280;34336;48.270;16.716;2023-02-03T10:51:39;76983.38;;;18.16;71.92
48555;BME280;34336;48.270;16.716;2023-02-03T10:56:52;76977.59;;;18.16;71.54
48555;BME280;34336;48.270;16.716;2023-02-03T10:59:29;76971.81;;;18.16;71.96
48555;BME280;34336;48.270;16.716;2023-02-03T11:01:57;76964.13;;;18.16;71.64
48555;BME280;34336;48.270;16.716;2023-02-03T11:04:30;76958.34;;;18.16;71.88
48555;BME280;34336;48.270;16.716;2023-02-03T11:07:05;76935.22;;;18.16;71.54
48555;BME280;34336;48.270;16.716;2023-02-03T11:09:35;76942.91;;;18.16;71.99
48555;BME280;34336;48.270;16.716;2023-02-03T11:12:12;76946.78;;;18.16;71.03
48555;BME280;34336;48.270;16.716;2023-02-03T11:14:42;76941.00;;;18.16;71.54
48555;BME280;34336;48.270;16.716;2023-02-03T11:17:24;76937.13;;;18.16;71.29
48555;BME280;34336;48.270;16.716;2023-02-03T11:20:13;76935.22;;;18.16;70.80
48555;BME280;34336;48.270;16.716;2023-02-03T11:22:42;76942.91;;;18.16;71.29
48555;BME280;34336;48.270;16.716;2023-02-03T11:25:26;76933.28;;;18.16;71.77
48555;BME280;34336;48.270;16.716;2023-02-03T11:27:55;76941.00;;;18.16;71.91
48555;BME280;34336;48.270;16.716;2023-02-03T11:30:29;76933.28;;;18.16;72.33
48555;BME280;34336;48.270;16.716;2023-02-03T11:32:59;76925.56;;;18.16;72.10
48555;BME280;34336;48.270;16.716;2023-02-03T11:35:28;76941.00;;;18.16;72.43
48555;BME280;34336;48.270;16.716;2023-02-03T11:38:00;76946.78;;;18.16;73.45
48555;BME280;34336;48.270;16.716;2023-02-03T11:40:36;76952.56;;;18.16;74.11
48555;BME280;34336;48.270;16.716;2023-02-03T11:43:14;76954.47;;;18.16;75.92
48555;BME280;34336;48.270;16.716;2023-02-03T11:45:52;76966.03;;;18.16;76.70
48555;BME280;34336;48.270;16.716;2023-02-03T11:56:29;76977.59;;;18.16;78.61
48555;BME280;34336;48.270;16.716;2023-02-03T12:04:38;76948.69;;;18.16;79.38
48555;BME280;34336;48.270;16.716;2023-02-03T12:17:36;76923.66;;;18.16;79.08
48555;BME280;34336;48.270;16.716;2023-02-03T12:31:06;76981.47;;;18.16;88.04
48555;BME280;34336;48.270;16.716;2023-02-03T12:33:40;76983.38;;;18.16;89.52
48555;BME280;34336;48.270;16.716;2023-02-03T12:36:29;77002.66;;;18.16;92.52
48555;BME280;34336;48.270;16.716;2023-02-03T12:39:05;76989.16;;;18.16;94.07
48555;BME280;34336;48.270;16.716;2023-02-03T12:41:39;76967.97;;;18.16;94.13
48555;BME280;34336;48.270;16.716;2023-02-03T12:44:16;76969.91;;;18.16;94.57
48555;BME280;34336;48.270;16.716;2023-02-03T12:47:05;76950.63;;;18.16;94.62
48555;BME280;34336;48.270;16.716;2023-02-03T12:49:45;76927.50;;;18.16;91.82
48555;BME280;34336;48.270;16.716;2023-02-03T12:52:25;76908.22;;;18.16;90.69
48555;BME280;34336;48.270;16.716;2023-02-03T12:55:02;76892.81;;;18.16;91.53
48555;BME280;34336;48.270;16.716;2023-02-03T12:57:36;76879.31;;;18.16;88.84
48555;BME280;34336;48.270;16.716;2023-02-03T13:00:24;76867.75;;;18.16;87.44
48555;BME280;34336;48.270;16.716;2023-02-03T13:03:01;76852.34;;;18.16;86.49
48555;BME280;34336;48.270;16.716;2023-02-03T13:05:40;76852.34;;;18.16;85.51
48555;BME280;34336;48.270;16.716;2023-02-03T13:08:22;76848.47;;;18.16;86.81
48555;BME280;34336;48.270;16.716;2023-02-03T13:11:01;76835.00;;;18.16;85.83
48555;BME280;34336;48.270;16.716;2023-02-03T13:13:36;76823.44;;;18.16;84.32
48555;BME280;34336;48.270;16.716;2023-02-03T13:16:05;76817.66;;;18.16;84.42
48555;BME280;34336;48.270;16.716;2023-02-03T13:18:36;76817.66;;;18.16;84.48
48555;BME280;34336;48.270;16.716;2023-02-03T13:21:03;76798.38;;;18.16;83.54
48555;BME280;34336;48.270;16.716;2023-02-03T13:23:31;76794.53;;;18.16;83.22
48555;BME280;34336;48.270;16.716;2023-02-03T13:34:34;76748.28;;;18.16;80.07
48555;BME280;34336;48.270;16.716;2023-02-03T13:44:54;76755.97;;;18.16;79.19
48555;BME280;34336;48.270;16.716;2023-02-03T13:47:28;76771.41;;;18.16;79.54
48555;BME280;34336;48.270;16.716;2023-02-03T13:50:01;76767.53;;;18.16;80.49
48555;BME280;34336;48.270;16.716;2023-02-03T13:52:45;76790.66;;;18.16;82.89
48555;BME280;34336;48.270;16.716;2023-02-03T13:57:57;76833.06;;;18.16;89.29
48555;BME280;34336;48.270;16.716;2023-02-03T14:05:55;76836.94;;;18.16;87.59
48555;BME280;34336;48.270;16.716;2023-02-03T14:16:38;76894.75;;;18.16;94.30
48555;BME280;34336;48.270;16.716;2023-02-03T14:22:04;76929.44;;;18.16;99.19
48555;BME280;34336;48.270;16.716;2023-02-03T14:24:35;76935.22;;;18.16;100.00
48555;BME280;34336;48.270;16.716;2023-02-03T14:27:14;76933.28;;;18.16;100.00
48555;BME280;34336;48.270;16.716;2023-02-03T14:29:41;76942.91;;;18.16;100.00
48555;BME280;34336;48.270;16.716;2023-02-03T14:32:10;76929.44;;;18.16;100.00
48555;BME280;34336;48.270;16.716;2023-02-03T14:34:40;76917.88;;;18.16;100.00
48555;BME280;34336;48.270;16.716;2023-02-03T14:37:28;76910.16;;;18.16;100.00
48555;BME280;34336;48.270;16.716;2023-02-03T14:40:18;76904.38;;;18.16;100.00
48555;BME280;34336;48.270;16.716;2023-02-03T14:47:57;76894.75;;;18.16;100.00
48555;BME280;34336;48.270;16.716;2023-02-03T14:50:57;76898.59;;;18.16;100.00
48555;BME280;34336;48.270;16.716;2023-02-03T14:56:19;76890.88;;;18.16;100.00